createdAt,value
2019-03-05T00:02:05.382Z,98924.13
2019-03-05T00:04:37.500Z,98930.47
2019-03-05T00:07:08.139Z,98935.97
2019-03-05T00:09:39.391Z,98937.38
2019-03-05T00:12:09.583Z,98931.48
2019-03-05T00:14:40.042Z,98931.48
2019-03-05T00:17:10.678Z,98937.36
2019-03-05T00:19:41.875Z,98931.83
2019-03-05T00:22:12.440Z,98943.08
2019-03-05T00:25:01.307Z,98936.27
2019-03-05T00:27:37.677Z,98937.93
2019-03-05T00:30:58.151Z,98945.84
2019-03-05T00:34:29.493Z,98946.12
2019-03-05T00:37:44.627Z,98948.67
2019-03-05T00:40:38.076Z,98945.92
2019-03-05T00:43:42.482Z,98945.28
2019-03-05T00:46:34.710Z,98952.83
2019-03-05T00:49:48.735Z,98945.75
2019-03-05T00:52:48.238Z,98954.31
2019-03-05T00:56:02.871Z,98954.67
2019-03-05T00:59:32.013Z,98953.39
2019-03-05T01:03:08.588Z,98963.13
2019-03-05T01:06:26.731Z,98962.94
2019-03-05T01:08:59.583Z,98955.78
2019-03-05T01:11:31.234Z,98952.83
2019-03-05T01:14:02.082Z,98958.90
2019-03-05T01:16:34.014Z,98963.30
2019-03-05T01:19:07.251Z,98970.36
2019-03-05T01:21:39.028Z,98981.66
2019-03-05T01:24:09.230Z,98972.50
2019-03-05T01:26:39.812Z,98975.41
2019-03-05T01:29:11.803Z,98979.36
2019-03-05T01:32:00.885Z,98976.94
2019-03-05T01:34:54.958Z,98975.00
2019-03-05T01:37:27.331Z,98993.22
2019-03-05T01:40:11.127Z,98996.28
2019-03-05T01:42:42.633Z,98997.89
2019-03-05T01:45:14.303Z,98998.55
2019-03-05T01:47:44.712Z,99002.35
2019-03-05T01:50:15.043Z,99000.18
2019-03-05T01:52:45.674Z,99004.00
2019-03-05T01:55:16.427Z,99001.53
2019-03-05T01:57:46.855Z,99003.13
2019-03-05T02:00:18.606Z,99002.22
2019-03-05T02:02:49.136Z,99010.14
2019-03-05T02:05:19.775Z,99002.63
2019-03-05T02:07:51.550Z,99015.25
2019-03-05T02:10:22.479Z,99013.09
2019-03-05T02:12:52.808Z,99014.70
2019-03-05T02:15:23.529Z,99004.03
2019-03-05T02:17:53.932Z,99013.85
2019-03-05T02:20:25.010Z,99005.58
2019-03-05T02:23:15.101Z,99008.85
2019-03-05T02:26:35.574Z,99008.03
2019-03-05T02:30:07.624Z,99004.78
2019-03-05T02:33:10.684Z,99007.45
2019-03-05T02:36:23.806Z,99006.25
2019-03-05T02:40:01.350Z,99008.73
2019-03-05T02:43:35.738Z,99006.08
2019-03-05T02:46:48.537Z,99010.61
2019-03-05T02:49:41.585Z,99005.17
2019-03-05T02:53:01.354Z,99012.33
2019-03-05T02:56:37.576Z,99014.59
2019-03-05T02:59:06.171Z,99007.35
2019-03-05T03:01:56.136Z,99008.56
2019-03-05T03:04:30.222Z,99014.71
2019-03-05T03:07:01.602Z,99013.39
2019-03-05T03:10:13.688Z,99018.48
2019-03-05T03:12:46.061Z,99015.82
2019-03-05T03:15:17.931Z,99019.13
2019-03-05T03:17:49.448Z,99020.53
2019-03-05T03:20:21.548Z,99022.55
2019-03-05T03:22:52.109Z,99018.77
2019-03-05T03:25:24.702Z,99034.55
2019-03-05T03:27:57.084Z,99032.54
2019-03-05T03:30:28.331Z,99047.92
2019-03-05T03:33:00.766Z,99046.73
2019-03-05T03:35:33.548Z,99052.64
2019-03-05T03:38:04.178Z,99054.11
2019-03-05T03:40:35.939Z,99057.59
2019-03-05T03:43:06.270Z,99056.33
2019-03-05T03:45:37.792Z,99059.30
2019-03-05T03:48:09.865Z,99058.48
2019-03-05T03:50:40.330Z,99065.16
2019-03-05T03:53:11.636Z,99065.20
2019-03-05T03:55:42.029Z,99065.94
2019-03-05T03:58:12.512Z,99069.56
2019-03-05T04:00:44.146Z,99065.23
2019-03-05T04:03:14.720Z,99069.81
2019-03-05T04:05:46.093Z,99082.78
2019-03-05T04:08:18.756Z,99077.48
2019-03-05T04:10:51.081Z,99079.12
2019-03-05T04:13:21.282Z,99087.05
2019-03-05T04:15:51.583Z,99077.22
2019-03-05T04:18:22.133Z,99084.94
2019-03-05T04:20:52.736Z,99090.39
2019-03-05T04:23:24.910Z,99088.38
2019-03-05T04:25:55.279Z,99083.69
2019-03-05T04:28:27.948Z,99080.27
2019-03-05T04:30:59.403Z,99083.56
2019-03-05T04:33:30.013Z,99077.83
2019-03-05T04:36:00.368Z,99083.72
2019-03-05T04:38:31.792Z,99080.94
2019-03-05T04:41:02.299Z,99084.34
2019-03-05T04:43:34.374Z,99088.31
2019-03-05T04:46:31.559Z,99079.86
2019-03-05T04:49:34.051Z,99074.56
2019-03-05T04:52:08.534Z,99084.02
2019-03-05T04:54:39.082Z,99090.31
2019-03-05T04:57:09.431Z,99086.27
2019-03-05T04:59:41.064Z,99090.84
2019-03-05T05:02:13.350Z,99106.11
2019-03-05T05:04:44.111Z,99104.17
2019-03-05T05:07:14.409Z,99097.36
2019-03-05T05:09:46.162Z,99098.82
2019-03-05T05:12:16.497Z,99104.52
2019-03-05T05:14:46.923Z,99102.88
2019-03-05T05:17:17.355Z,99108.38
2019-03-05T05:19:47.478Z,99115.90
2019-03-05T05:22:17.714Z,99112.48
2019-03-05T05:24:50.897Z,99119.35
2019-03-05T05:27:22.661Z,99118.77
2019-03-05T05:29:53.272Z,99116.34
2019-03-05T05:32:26.702Z,99123.02
2019-03-05T05:34:57.943Z,99119.06
2019-03-05T05:37:28.211Z,99128.24
2019-03-05T05:40:25.402Z,99124.12
2019-03-05T05:42:56.004Z,99128.69
2019-03-05T05:45:38.279Z,99139.02
2019-03-05T05:48:10.825Z,99132.64
2019-03-05T05:50:41.328Z,99143.28
2019-03-05T05:53:13.402Z,99141.80
2019-03-05T05:55:43.931Z,99147.87
2019-03-05T05:58:14.415Z,99156.02
2019-03-05T06:00:46.930Z,99159.20
2019-03-05T06:03:17.088Z,99151.06
2019-03-05T06:05:49.256Z,99158.61
2019-03-05T06:08:19.756Z,99162.56
2019-03-05T06:10:52.594Z,99172.52
2019-03-05T06:13:22.820Z,99180.09
2019-03-05T06:15:53.136Z,99176.64
2019-03-05T06:18:24.796Z,99183.08
2019-03-05T06:20:55.678Z,99191.19
2019-03-05T06:23:26.184Z,99190.09
2019-03-05T06:25:57.626Z,99200.69
2019-03-05T06:28:28.350Z,99207.51
2019-03-05T06:31:00.430Z,99194.16
2019-03-05T06:33:30.962Z,99198.20
2019-03-05T06:36:01.634Z,99206.02
2019-03-05T06:38:33.881Z,99211.09
2019-03-05T06:41:05.199Z,99207.87
2019-03-05T06:43:35.555Z,99214.74
2019-03-05T06:46:09.054Z,99212.81
2019-03-05T06:48:41.019Z,99215.44
2019-03-05T06:51:11.573Z,99222.94
2019-03-05T06:53:43.010Z,99224.44
2019-03-05T06:56:15.053Z,99231.34
2019-03-05T06:58:45.317Z,99235.46
2019-03-05T07:01:15.509Z,99244.56
2019-03-05T07:03:45.882Z,99245.84
2019-03-05T07:06:54.167Z,99254.33
2019-03-05T07:10:23.320Z,99248.11
2019-03-05T07:13:16.779Z,99259.61
2019-03-05T07:16:29.274Z,99261.72
2019-03-05T07:19:30.704Z,99265.28
2019-03-05T07:22:34.212Z,99260.81
2019-03-05T07:25:05.247Z,99269.09
2019-03-05T07:27:47.433Z,99274.22
2019-03-05T07:30:27.278Z,99272.66
2019-03-05T07:32:59.477Z,99280.47
2019-03-05T07:35:32.745Z,99271.45
2019-03-05T07:38:03.473Z,99276.98
2019-03-05T07:40:33.711Z,99277.19
2019-03-05T07:43:04.039Z,99277.25
2019-03-05T07:45:34.673Z,99287.82
2019-03-05T07:48:05.195Z,99292.51
2019-03-05T07:50:35.426Z,99297.31
2019-03-05T07:53:05.914Z,99295.34
2019-03-05T07:55:36.670Z,99304.72
2019-03-05T07:58:06.929Z,99301.38
2019-03-05T08:00:37.565Z,99301.70
2019-03-05T08:03:07.965Z,99309.83
2019-03-05T08:05:38.875Z,99305.28
2019-03-05T08:09:04.946Z,99313.05
2019-03-05T08:11:35.530Z,99325.23
2019-03-05T08:15:04.142Z,99305.91
2019-03-05T08:17:34.763Z,99311.17
2019-03-05T08:20:07.862Z,99311.27
2019-03-05T08:22:38.306Z,99320.08
2019-03-05T08:25:11.766Z,99327.05
2019-03-05T08:27:42.226Z,99330.39
2019-03-05T08:30:15.035Z,99324.90
2019-03-05T08:32:45.742Z,99330.00
2019-03-05T08:35:16.175Z,99332.89
2019-03-05T08:37:46.604Z,99333.36
2019-03-05T08:40:19.493Z,99335.84
2019-03-05T08:42:49.759Z,99355.02
2019-03-05T08:45:28.863Z,99353.30
2019-03-05T08:47:54.362Z,99362.50
2019-03-05T08:50:24.604Z,99364.59
2019-03-05T08:52:55.434Z,99373.31
2019-03-05T08:55:25.865Z,99372.91
2019-03-05T08:57:57.354Z,99383.47
2019-03-05T09:00:27.644Z,99380.27
2019-03-05T09:02:59.726Z,99389.88
2019-03-05T09:05:30.975Z,99393.20
2019-03-05T09:08:01.297Z,99387.70
2019-03-05T09:10:31.887Z,99394.23
2019-03-05T09:13:02.238Z,99389.25
2019-03-05T09:15:32.586Z,99389.97
2019-03-05T09:18:02.911Z,99393.98
2019-03-05T09:20:35.183Z,99390.38
2019-03-05T09:23:06.611Z,99399.23
2019-03-05T09:25:39.730Z,99400.43
2019-03-05T09:28:10.173Z,99393.94
2019-03-05T09:30:40.356Z,99404.12
2019-03-05T09:33:10.516Z,99410.11
2019-03-05T09:35:44.523Z,99393.97
2019-03-05T09:38:16.575Z,99397.05
2019-03-05T09:40:47.038Z,99393.50
2019-03-05T09:43:17.505Z,99393.87
2019-03-05T09:45:49.544Z,99398.57
2019-03-05T09:48:19.834Z,99393.41
2019-03-05T09:50:50.322Z,99403.11
2019-03-05T09:53:22.391Z,99398.34
2019-03-05T09:55:52.732Z,99399.33
2019-03-05T09:58:24.849Z,99419.28
2019-03-05T10:00:55.160Z,99401.07
2019-03-05T10:03:26.753Z,99413.11
2019-03-05T10:05:57.020Z,99402.19
2019-03-05T10:08:32.356Z,99415.42
2019-03-05T10:11:01.302Z,99415.50
2019-03-05T10:13:34.427Z,99411.05
2019-03-05T10:16:08.201Z,99418.54
2019-03-05T10:18:39.761Z,99422.53
2019-03-05T10:21:12.140Z,99416.63
2019-03-05T10:23:42.767Z,99420.52
2019-03-05T10:26:13.198Z,99405.26
2019-03-05T10:28:45.385Z,99419.77
2019-03-05T10:31:18.804Z,99422.67
2019-03-05T10:33:51.110Z,99434.11
2019-03-05T10:36:21.675Z,99436.65
2019-03-05T10:38:57.209Z,99446.41
2019-03-05T10:41:25.107Z,99456.93
2019-03-05T10:43:57.479Z,99453.92
2019-03-05T10:46:28.529Z,99452.67
2019-03-05T10:48:59.145Z,99460.23
2019-03-05T10:51:32.959Z,99447.59
2019-03-05T10:54:03.801Z,99447.31
2019-03-05T10:56:34.417Z,99452.25
2019-03-05T10:59:05.519Z,99452.06
2019-03-05T11:01:36.565Z,99439.55
2019-03-05T11:04:07.056Z,99442.24
2019-03-05T11:06:37.711Z,99440.34
2019-03-05T11:09:10.079Z,99446.50
2019-03-05T11:11:40.684Z,99446.37
2019-03-05T11:14:14.726Z,99441.34
2019-03-05T11:16:47.029Z,99446.81
2019-03-05T11:19:18.578Z,99447.34
2019-03-05T11:21:50.415Z,99440.80
2019-03-05T11:24:21.046Z,99448.94
2019-03-05T11:26:51.474Z,99447.11
2019-03-05T11:29:23.850Z,99449.61
2019-03-05T11:31:54.047Z,99437.20
2019-03-05T11:34:24.418Z,99447.38
2019-03-05T11:36:59.156Z,99445.01
2019-03-05T11:39:31.823Z,99454.91
2019-03-05T11:42:03.476Z,99444.73
2019-03-05T11:44:34.176Z,99451.11
2019-03-05T11:47:05.020Z,99452.84
2019-03-05T11:49:35.638Z,99448.97
2019-03-05T11:52:05.974Z,99457.48
2019-03-05T11:54:36.438Z,99457.15
2019-03-05T11:57:08.472Z,99474.27
2019-03-05T11:59:38.946Z,99469.92
2019-03-05T12:02:21.053Z,99475.22
2019-03-05T12:04:44.457Z,99471.89
2019-03-05T12:07:16.080Z,99484.96
2019-03-05T12:09:47.323Z,99528.77
2019-03-05T12:12:17.958Z,99542.47
2019-03-05T12:14:48.393Z,99538.33
2019-03-05T12:17:19.004Z,99538.83
2019-03-05T12:19:49.351Z,99533.91
2019-03-05T12:22:19.688Z,99535.13
2019-03-05T12:24:52.890Z,99528.00
2019-03-05T12:27:23.414Z,99523.01
2019-03-05T12:29:53.744Z,99517.83
2019-03-05T12:32:25.293Z,99522.63
2019-03-05T12:34:55.830Z,99514.94
2019-03-05T12:37:26.300Z,99514.39
2019-03-05T12:39:56.643Z,99519.84
2019-03-05T12:42:27.070Z,99512.45
2019-03-05T12:44:57.594Z,99513.47
2019-03-05T12:47:27.867Z,99518.07
2019-03-05T12:49:59.107Z,99520.46
2019-03-05T12:52:29.558Z,99517.42
2019-03-05T12:55:01.838Z,99529.49
2019-03-05T12:57:33.312Z,99524.89
2019-03-05T13:00:07.132Z,99531.88
2019-03-05T13:02:37.837Z,99541.20
2019-03-05T13:05:10.924Z,99540.23
2019-03-05T13:07:41.355Z,99551.81
2019-03-05T13:10:15.631Z,99550.20
2019-03-05T13:12:47.266Z,99553.11
2019-03-05T13:15:21.143Z,99565.66
2019-03-05T13:17:52.901Z,99567.87
2019-03-05T13:20:26.204Z,99571.11
2019-03-05T13:22:55.956Z,99568.48
2019-03-05T13:25:29.711Z,99571.18
2019-03-05T13:28:01.978Z,99572.95
2019-03-05T13:30:32.929Z,99566.27
2019-03-05T13:33:04.513Z,99580.48
2019-03-05T13:35:36.338Z,99586.24
2019-03-05T13:38:09.830Z,99588.39
2019-03-05T13:40:41.317Z,99589.61
2019-03-05T13:43:14.514Z,99600.20
2019-03-05T13:45:49.539Z,99599.11
2019-03-05T13:48:36.346Z,99602.08
2019-03-05T13:52:06.539Z,99592.91
2019-03-05T13:55:37.346Z,99602.80
2019-03-05T13:59:03.047Z,99595.37
2019-03-05T14:01:34.440Z,99600.26
2019-03-05T14:04:10.185Z,99601.89
2019-03-05T14:07:58.117Z,99603.27
2019-03-05T14:10:30.085Z,99602.05
2019-03-05T14:13:00.699Z,99606.27
2019-03-05T14:15:31.611Z,99626.34
2019-03-05T14:18:04.270Z,99623.92
2019-03-05T14:20:35.293Z,99627.81
2019-03-05T14:23:07.947Z,99630.40
2019-03-05T14:25:38.507Z,99644.08
2019-03-05T14:28:10.691Z,99652.44
2019-03-05T14:30:43.166Z,99654.16
2019-03-05T14:33:13.706Z,99657.16
2019-03-05T14:35:47.519Z,99664.13
2019-03-05T14:38:18.160Z,99657.17
2019-03-05T14:40:48.593Z,99666.34
2019-03-05T14:43:19.986Z,99664.74
2019-03-05T14:45:51.702Z,99668.84
2019-03-05T14:48:23.456Z,99672.53
2019-03-05T14:50:55.916Z,99676.01
2019-03-05T14:53:26.574Z,99680.08
2019-03-05T14:55:57.370Z,99683.05
2019-03-05T14:58:28.762Z,99681.84
2019-03-05T15:00:59.580Z,99691.52
2019-03-05T15:03:29.949Z,99689.51
2019-03-05T15:06:01.495Z,99693.25
2019-03-05T15:08:33.350Z,99685.95
2019-03-05T15:11:03.977Z,99691.66
2019-03-05T15:13:34.590Z,99694.16
2019-03-05T15:16:05.136Z,99699.38
2019-03-05T15:18:36.399Z,99707.95
2019-03-05T15:21:08.225Z,99712.46
2019-03-05T15:23:40.446Z,99740.55
2019-03-05T15:26:13.861Z,99755.47
2019-03-05T15:28:55.691Z,99782.34
2019-03-05T15:31:18.313Z,99789.25
2019-03-05T15:33:48.739Z,99798.59
2019-03-05T15:36:24.003Z,99782.27
2019-03-05T15:38:54.521Z,99753.82
2019-03-05T15:41:27.074Z,99762.03
2019-03-05T15:43:59.207Z,99758.00
2019-03-05T15:46:29.600Z,99746.17
2019-03-05T15:49:00.106Z,99753.83
2019-03-05T15:51:31.766Z,99753.44
2019-03-05T15:54:02.677Z,99753.08
2019-03-05T15:56:33.047Z,99756.42
2019-03-05T15:59:03.220Z,99762.41
2019-03-05T16:01:34.098Z,99761.45
2019-03-05T16:04:04.966Z,99763.28
2019-03-05T16:06:35.922Z,99759.10
2019-03-05T16:09:16.121Z,99759.92
2019-03-05T16:11:48.609Z,99768.12
2019-03-05T16:14:19.147Z,99765.55
2019-03-05T16:16:51.763Z,99768.28
2019-03-05T16:19:22.570Z,99765.51
2019-03-05T16:21:53.145Z,99769.68
2019-03-05T16:24:23.693Z,99767.65
2019-03-05T16:26:56.739Z,99770.66
2019-03-05T16:29:26.908Z,99776.64
2019-03-05T16:32:09.246Z,99774.42
2019-03-05T16:34:51.962Z,99785.38
2019-03-05T16:37:43.702Z,99782.98
2019-03-05T16:40:46.535Z,99789.58
2019-03-05T16:43:35.752Z,99782.89
2019-03-05T16:46:32.741Z,99792.38
2019-03-05T16:49:41.249Z,99797.16
2019-03-05T16:52:38.190Z,99805.74
2019-03-05T16:55:29.909Z,99804.72
2019-03-05T16:58:17.615Z,99812.27
2019-03-05T17:01:07.597Z,99816.42
2019-03-05T17:04:02.556Z,99820.47
2019-03-05T17:06:52.219Z,99829.86
2019-03-05T17:09:34.964Z,99836.41
2019-03-05T17:12:06.418Z,99843.91
2019-03-05T17:14:37.025Z,99852.77
2019-03-05T17:17:08.897Z,99863.02
2019-03-05T17:19:40.575Z,99865.33
2019-03-05T17:22:11.110Z,99871.81
2019-03-05T17:24:42.487Z,99877.83
2019-03-05T17:27:13.043Z,99877.28
2019-03-05T17:29:44.346Z,99879.04
2019-03-05T17:32:15.494Z,99881.23
2019-03-05T17:34:46.101Z,99889.34
2019-03-05T17:37:17.989Z,99888.45
2019-03-05T17:39:49.761Z,99894.00
2019-03-05T17:42:22.056Z,99888.28
2019-03-05T17:44:52.372Z,99900.70
2019-03-05T17:47:25.807Z,99907.89
2019-03-05T17:49:56.050Z,99919.09
2019-03-05T17:52:26.777Z,99918.44
2019-03-05T17:54:57.464Z,99928.69
2019-03-05T17:57:27.691Z,99932.03
2019-03-05T17:59:58.482Z,99932.30
2019-03-05T18:02:29.465Z,99935.57
2019-03-05T18:04:59.900Z,99937.38
2019-03-05T18:07:32.277Z,99938.28
2019-03-05T18:10:04.646Z,99937.52
2019-03-05T18:12:35.185Z,99945.29
2019-03-05T18:15:08.790Z,99959.73
2019-03-05T18:17:39.420Z,99961.79
2019-03-05T18:20:14.148Z,99964.46
2019-03-05T18:22:44.673Z,99963.23
2019-03-05T18:25:15.444Z,99971.23
2019-03-05T18:27:47.372Z,99972.08
2019-03-05T18:30:20.891Z,99977.16
2019-03-05T18:32:51.669Z,99982.45
2019-03-05T18:35:22.281Z,99984.55
2019-03-05T18:37:54.236Z,99981.91
2019-03-05T18:40:25.053Z,99990.03
2019-03-05T18:43:05.003Z,99993.69
2019-03-05T18:45:36.312Z,99995.73
2019-03-05T18:48:08.332Z,100000.95
2019-03-05T18:50:39.071Z,100004.34
2019-03-05T18:53:10.022Z,100006.91
2019-03-05T18:55:40.963Z,100008.81
2019-03-05T18:58:11.793Z,100005.84
2019-03-05T19:00:45.834Z,100012.45
2019-03-05T19:03:18.693Z,100015.03
2019-03-05T19:05:50.869Z,100022.35
2019-03-05T19:08:24.432Z,100024.88
2019-03-05T19:10:56.438Z,100025.14
2019-03-05T19:13:28.296Z,100030.41
2019-03-05T19:16:02.217Z,100032.28
2019-03-05T19:18:33.471Z,100030.75
2019-03-05T19:21:07.674Z,100038.78
2019-03-05T19:23:41.276Z,100035.98
2019-03-05T19:26:13.894Z,100036.75
2019-03-05T19:28:44.719Z,100038.04
2019-03-05T19:31:15.097Z,100050.31
2019-03-05T19:33:49.240Z,100052.08
2019-03-05T19:36:26.152Z,100050.73
2019-03-05T19:38:56.795Z,100053.36
2019-03-05T19:41:27.920Z,100051.41
2019-03-05T19:44:00.765Z,100058.00
2019-03-05T19:46:32.750Z,100061.74
2019-03-05T19:49:04.264Z,100060.06
2019-03-05T19:51:34.878Z,100060.12
2019-03-05T19:54:05.892Z,100060.68
2019-03-05T19:56:36.433Z,100061.69
2019-03-05T19:59:09.478Z,100070.08
2019-03-05T20:01:43.739Z,100066.84
2019-03-05T20:04:15.831Z,100070.95
2019-03-05T20:06:46.877Z,100068.00
2019-03-05T20:09:45.220Z,100067.61
2019-03-05T20:12:17.018Z,100076.38
2019-03-05T20:14:47.993Z,100073.17
2019-03-05T20:17:20.269Z,100074.60
2019-03-05T20:19:51.072Z,100080.87
2019-03-05T20:22:22.900Z,100081.97
2019-03-05T20:24:55.810Z,100086.08
2019-03-05T20:27:28.694Z,100079.31
2019-03-05T20:29:59.484Z,100087.77
2019-03-05T20:32:30.428Z,100092.10
2019-03-05T20:35:02.370Z,100094.74
2019-03-05T20:37:33.501Z,100099.75
2019-03-05T20:40:07.468Z,100098.66
2019-03-05T20:42:39.691Z,100107.52
2019-03-05T20:45:21.437Z,100111.48
2019-03-05T20:47:52.820Z,100117.15
2019-03-05T20:50:26.744Z,100119.72
2019-03-05T20:52:57.239Z,100118.91
2019-03-05T20:55:28.416Z,100115.97
2019-03-05T20:58:05.233Z,100123.04
2019-03-05T21:00:36.388Z,100131.68
2019-03-05T21:03:07.540Z,100134.30
2019-03-05T21:05:40.532Z,100132.90
2019-03-05T21:08:13.835Z,100142.13
2019-03-05T21:10:47.735Z,100145.49
2019-03-05T21:13:18.471Z,100143.58
2019-03-05T21:15:51.374Z,100144.52
2019-03-05T21:18:22.005Z,100147.27
2019-03-05T21:20:53.255Z,100150.42
2019-03-05T21:23:25.861Z,100150.30
2019-03-05T21:25:56.680Z,100150.44
2019-03-05T21:28:28.231Z,100149.09
2019-03-05T21:30:58.974Z,100151.53
2019-03-05T21:33:31.424Z,100149.74
2019-03-05T21:36:01.970Z,100156.91
2019-03-05T21:38:32.390Z,100166.20
2019-03-05T21:41:02.838Z,100161.41
2019-03-05T21:43:34.613Z,100163.91
2019-03-05T21:46:10.713Z,100168.41
2019-03-05T21:48:40.999Z,100170.97
2019-03-05T21:51:11.491Z,100178.72
2019-03-05T21:53:42.200Z,100185.50
2019-03-05T21:56:13.119Z,100181.02
2019-03-05T21:58:46.611Z,100187.59
2019-03-05T22:01:18.977Z,100185.16
2019-03-05T22:03:51.556Z,100183.11
2019-03-05T22:06:22.814Z,100183.83
2019-03-05T22:08:54.641Z,100185.32
2019-03-05T22:11:26.366Z,100186.60
2019-03-05T22:14:00.194Z,100189.92
2019-03-05T22:16:32.615Z,100197.45
2019-03-05T22:19:03.839Z,100198.48
2019-03-05T22:21:34.986Z,100197.83
2019-03-05T22:24:07.592Z,100201.98
2019-03-05T22:26:38.228Z,100203.19
2019-03-05T22:29:09.054Z,100196.41
2019-03-05T22:31:40.070Z,100204.72
2019-03-05T22:34:12.454Z,100200.52
2019-03-05T22:36:42.623Z,100210.06
2019-03-05T22:39:12.793Z,100207.19
2019-03-05T22:41:42.980Z,100210.28
2019-03-05T22:44:15.233Z,100209.94
2019-03-05T22:46:45.432Z,100212.52
2019-03-05T22:49:15.940Z,100207.27
2019-03-05T22:51:47.464Z,100205.72
2019-03-05T22:54:18.013Z,100205.41
2019-03-05T22:56:49.742Z,100213.20
2019-03-05T22:59:21.336Z,100215.34
2019-03-05T23:01:53.019Z,100221.44
2019-03-05T23:04:49.262Z,100223.19
2019-03-05T23:07:20.733Z,100221.91
2019-03-05T23:09:52.088Z,100222.22
2019-03-05T23:12:23.844Z,100228.31
2019-03-05T23:14:55.922Z,100232.30
2019-03-05T23:17:26.345Z,100233.08
2019-03-05T23:19:57.245Z,100232.89
2019-03-05T23:22:27.513Z,100228.95
2019-03-05T23:24:57.704Z,100232.98
2019-03-05T23:27:28.242Z,100231.84
2019-03-05T23:29:58.746Z,100238.66
2019-03-05T23:32:29.249Z,100239.53
2019-03-05T23:34:59.847Z,100239.30
2019-03-05T23:37:31.532Z,100234.21
2019-03-05T23:40:01.890Z,100236.23
2019-03-05T23:42:32.497Z,100240.25
2019-03-05T23:45:03.232Z,100244.89
2019-03-05T23:47:35.731Z,100242.08
2019-03-05T23:50:08.496Z,100242.69
2019-03-05T23:52:42.340Z,100237.52
2019-03-05T23:55:15.598Z,100242.77
2019-03-05T23:57:47.950Z,100241.98
